sensor_id;sensor_type;location;lat;lon;timestamp;P1;durP1;ratioP1;P2;durP2;ratioP2
3427;SDS011;1727;42.624;23.406;2022-09-25T00:00:58;10.70;;;8.37;;
3427;SDS011;1727;42.624;23.406;2022-09-25T00:03:26;9.50;;;8.50;;
3427;SDS011;1727;42.624;23.406;2022-09-25T00:05:59;10.63;;;8.67;;
3427;SDS011;1727;42.624;23.406;2022-09-25T00:08:27;9.50;;;7.17;;
3427;SDS011;1727;42.624;23.406;2022-09-25T00:10:54;7.13;;;6.43;;
3427;SDS011;1727;42.624;23.406;2022-09-25T00:13:23;14.50;;;7.80;;
3427;SDS011;1727;42.624;23.406;2022-09-25T00:15:50;8.80;;;6.37;;
3427;SDS011;1727;42.624;23.406;2022-09-25T00:18:19;10.20;;;6.80;;
3427;SDS011;1727;42.624;23.406;2022-09-25T00:21:08;7.43;;;6.77;;
3427;SDS011;1727;42.624;23.406;2022-09-25T00:23:36;6.57;;;5.77;;
3427;SDS011;1727;42.624;23.406;2022-09-25T00:26:03;7.60;;;5.83;;
3427;SDS011;1727;42.624;23.406;2022-09-25T00:28:34;7.30;;;6.60;;
3427;SDS011;1727;42.624;23.406;2022-09-25T00:31:02;7.07;;;6.37;;
3427;SDS011;1727;42.624;23.406;2022-09-25T00:33:29;6.70;;;5.70;;
3427;SDS011;1727;42.624;23.406;2022-09-25T00:35:59;6.70;;;6.07;;
3427;SDS011;1727;42.624;23.406;2022-09-25T00:38:28;6.97;;;6.30;;
3427;SDS011;1727;42.624;23.406;2022-09-25T00:40:55;6.73;;;6.03;;
3427;SDS011;1727;42.624;23.406;2022-09-25T00:43:35;6.20;;;5.50;;
3427;SDS011;1727;42.624;23.406;2022-09-25T00:46:05;6.90;;;6.30;;
3427;SDS011;1727;42.624;23.406;2022-09-25T00:48:34;6.37;;;5.73;;
3427;SDS011;1727;42.624;23.406;2022-09-25T00:51:02;5.43;;;4.93;;
3427;SDS011;1727;42.624;23.406;2022-09-25T00:53:32;5.63;;;5.10;;
3427;SDS011;1727;42.624;23.406;2022-09-25T00:56:05;6.77;;;6.07;;
3427;SDS011;1727;42.624;23.406;2022-09-25T00:58:36;6.97;;;6.13;;
3427;SDS011;1727;42.624;23.406;2022-09-25T01:01:05;6.40;;;5.70;;
3427;SDS011;1727;42.624;23.406;2022-09-25T01:03:33;5.80;;;5.20;;
3427;SDS011;1727;42.624;23.406;2022-09-25T01:06:01;5.80;;;5.20;;
3427;SDS011;1727;42.624;23.406;2022-09-25T01:08:28;6.80;;;6.13;;
3427;SDS011;1727;42.624;23.406;2022-09-25T01:10:57;8.70;;;6.80;;
3427;SDS011;1727;42.624;23.406;2022-09-25T01:13:27;5.77;;;5.17;;
3427;SDS011;1727;42.624;23.406;2022-09-25T01:15:57;7.03;;;6.00;;
3427;SDS011;1727;42.624;23.406;2022-09-25T01:18:39;6.10;;;5.60;;
3427;SDS011;1727;42.624;23.406;2022-09-25T01:21:18;7.37;;;6.33;;
3427;SDS011;1727;42.624;23.406;2022-09-25T01:24:05;6.30;;;5.37;;
3427;SDS011;1727;42.624;23.406;2022-09-25T01:29:44;6.40;;;5.80;;
3427;SDS011;1727;42.624;23.406;2022-09-25T01:32:17;8.70;;;6.40;;
3427;SDS011;1727;42.624;23.406;2022-09-25T01:34:50;6.60;;;6.00;;
3427;SDS011;1727;42.624;23.406;2022-09-25T01:37:23;7.50;;;6.73;;
3427;SDS011;1727;42.624;23.406;2022-09-25T01:39:55;8.33;;;6.97;;
3427;SDS011;1727;42.624;23.406;2022-09-25T01:42:33;6.60;;;6.00;;
3427;SDS011;1727;42.624;23.406;2022-09-25T01:45:08;5.70;;;5.23;;
3427;SDS011;1727;42.624;23.406;2022-09-25T01:47:40;8.17;;;6.97;;
3427;SDS011;1727;42.624;23.406;2022-09-25T01:50:13;8.50;;;6.93;;
3427;SDS011;1727;42.624;23.406;2022-09-25T01:52:45;9.30;;;7.20;;
3427;SDS011;1727;42.624;23.406;2022-09-25T01:55:15;10.17;;;7.93;;
3427;SDS011;1727;42.624;23.406;2022-09-25T01:57:47;8.00;;;7.20;;
3427;SDS011;1727;42.624;23.406;2022-09-25T02:00:21;8.77;;;7.40;;
3427;SDS011;1727;42.624;23.406;2022-09-25T02:02:52;6.93;;;6.23;;
3427;SDS011;1727;42.624;23.406;2022-09-25T02:05:24;7.33;;;6.57;;
3427;SDS011;1727;42.624;23.406;2022-09-25T02:07:57;10.73;;;7.13;;
3427;SDS011;1727;42.624;23.406;2022-09-25T02:10:28;7.90;;;7.13;;
3427;SDS011;1727;42.624;23.406;2022-09-25T02:13:04;7.23;;;6.30;;
3427;SDS011;1727;42.624;23.406;2022-09-25T02:15:37;13.07;;;8.30;;
3427;SDS011;1727;42.624;23.406;2022-09-25T02:18:09;8.80;;;6.93;;
3427;SDS011;1727;42.624;23.406;2022-09-25T02:21:00;9.73;;;6.93;;
3427;SDS011;1727;42.624;23.406;2022-09-25T02:23:36;6.90;;;6.20;;
3427;SDS011;1727;42.624;23.406;2022-09-25T02:26:15;8.93;;;7.00;;
3427;SDS011;1727;42.624;23.406;2022-09-25T02:28:51;9.27;;;6.37;;
3427;SDS011;1727;42.624;23.406;2022-09-25T02:31:20;6.80;;;6.17;;
3427;SDS011;1727;42.624;23.406;2022-09-25T02:33:51;6.20;;;5.63;;
3427;SDS011;1727;42.624;23.406;2022-09-25T02:36:19;6.30;;;5.60;;
3427;SDS011;1727;42.624;23.406;2022-09-25T02:38:48;6.77;;;6.10;;
3427;SDS011;1727;42.624;23.406;2022-09-25T02:41:18;7.10;;;5.70;;
3427;SDS011;1727;42.624;23.406;2022-09-25T02:43:56;7.03;;;6.10;;
3427;SDS011;1727;42.624;23.406;2022-09-25T02:46:31;7.43;;;5.80;;
3427;SDS011;1727;42.624;23.406;2022-09-25T02:49:05;6.03;;;5.23;;
3427;SDS011;1727;42.624;23.406;2022-09-25T02:51:43;7.27;;;6.57;;
3427;SDS011;1727;42.624;23.406;2022-09-25T02:54:21;10.40;;;8.50;;
3427;SDS011;1727;42.624;23.406;2022-09-25T02:56:53;13.03;;;9.93;;
3427;SDS011;1727;42.624;23.406;2022-09-25T02:59:27;10.83;;;8.90;;
3427;SDS011;1727;42.624;23.406;2022-09-25T03:02:00;12.30;;;8.53;;
3427;SDS011;1727;42.624;23.406;2022-09-25T03:04:28;8.93;;;7.00;;
3427;SDS011;1727;42.624;23.406;2022-09-25T03:06:59;8.93;;;7.57;;
3427;SDS011;1727;42.624;23.406;2022-09-25T03:09:27;6.17;;;5.43;;
3427;SDS011;1727;42.624;23.406;2022-09-25T03:11:56;7.07;;;6.37;;
3427;SDS011;1727;42.624;23.406;2022-09-25T03:14:23;7.63;;;4.77;;
3427;SDS011;1727;42.624;23.406;2022-09-25T03:16:52;5.73;;;5.23;;
3427;SDS011;1727;42.624;23.406;2022-09-25T03:19:22;6.17;;;4.97;;
3427;SDS011;1727;42.624;23.406;2022-09-25T03:21:52;6.17;;;5.57;;
3427;SDS011;1727;42.624;23.406;2022-09-25T03:24:19;6.83;;;5.50;;
3427;SDS011;1727;42.624;23.406;2022-09-25T03:26:46;6.23;;;5.03;;
3427;SDS011;1727;42.624;23.406;2022-09-25T03:29:13;8.73;;;5.27;;
3427;SDS011;1727;42.624;23.406;2022-09-25T03:31:41;6.13;;;5.63;;
3427;SDS011;1727;42.624;23.406;2022-09-25T03:34:09;6.50;;;5.67;;
3427;SDS011;1727;42.624;23.406;2022-09-25T03:36:39;6.43;;;5.30;;
3427;SDS011;1727;42.624;23.406;2022-09-25T03:39:08;6.20;;;5.27;;
3427;SDS011;1727;42.624;23.406;2022-09-25T03:41:36;6.10;;;5.60;;
3427;SDS011;1727;42.624;23.406;2022-09-25T03:44:02;6.90;;;5.90;;
3427;SDS011;1727;42.624;23.406;2022-09-25T03:46:30;6.67;;;5.30;;
3427;SDS011;1727;42.624;23.406;2022-09-25T03:48:58;7.70;;;4.90;;
3427;SDS011;1727;42.624;23.406;2022-09-25T03:51:25;5.70;;;5.20;;
3427;SDS011;1727;42.624;23.406;2022-09-25T03:53:55;6.10;;;5.27;;
3427;SDS011;1727;42.624;23.406;2022-09-25T03:56:23;5.60;;;5.10;;
3427;SDS011;1727;42.624;23.406;2022-09-25T03:58:52;6.60;;;6.00;;
3427;SDS011;1727;42.624;23.406;2022-09-25T04:01:19;9.90;;;5.53;;
3427;SDS011;1727;42.624;23.406;2022-09-25T04:03:47;9.53;;;8.10;;
3427;SDS011;1727;42.624;23.406;2022-09-25T04:06:15;13.90;;;9.40;;
3427;SDS011;1727;42.624;23.406;2022-09-25T04:08:45;10.70;;;8.57;;
3427;SDS011;1727;42.624;23.406;2022-09-25T04:11:14;12.83;;;8.97;;
3427;SDS011;1727;42.624;23.406;2022-09-25T04:13:42;10.33;;;7.80;;
3427;SDS011;1727;42.624;23.406;2022-09-25T04:16:09;10.53;;;7.37;;
3427;SDS011;1727;42.624;23.406;2022-09-25T04:18:38;10.98;;;9.63;;
3427;SDS011;1727;42.624;23.406;2022-09-25T04:21:07;15.13;;;9.03;;
3427;SDS011;1727;42.624;23.406;2022-09-25T04:23:36;10.60;;;9.00;;
3427;SDS011;1727;42.624;23.406;2022-09-25T04:26:03;12.70;;;9.80;;
3427;SDS011;1727;42.624;23.406;2022-09-25T04:28:32;10.63;;;9.40;;
3427;SDS011;1727;42.624;23.406;2022-09-25T04:30:59;12.13;;;8.90;;
3427;SDS011;1727;42.624;23.406;2022-09-25T04:33:27;12.57;;;9.97;;
3427;SDS011;1727;42.624;23.406;2022-09-25T04:36:12;12.40;;;9.77;;
3427;SDS011;1727;42.624;23.406;2022-09-25T04:38:39;13.47;;;10.00;;
3427;SDS011;1727;42.624;23.406;2022-09-25T04:41:06;11.63;;;9.57;;
3427;SDS011;1727;42.624;23.406;2022-09-25T04:43:34;13.23;;;10.13;;
3427;SDS011;1727;42.624;23.406;2022-09-25T04:46:01;12.23;;;10.30;;
3427;SDS011;1727;42.624;23.406;2022-09-25T04:48:29;14.77;;;10.77;;
3427;SDS011;1727;42.624;23.406;2022-09-25T04:50:56;13.10;;;10.10;;
3427;SDS011;1727;42.624;23.406;2022-09-25T04:53:24;11.50;;;9.07;;
3427;SDS011;1727;42.624;23.406;2022-09-25T04:55:51;9.63;;;8.60;;
3427;SDS011;1727;42.624;23.406;2022-09-25T04:58:20;13.40;;;9.50;;
3427;SDS011;1727;42.624;23.406;2022-09-25T05:00:48;11.40;;;8.50;;
3427;SDS011;1727;42.624;23.406;2022-09-25T05:03:15;8.60;;;7.43;;
3427;SDS011;1727;42.624;23.406;2022-09-25T05:05:42;11.03;;;8.60;;
3427;SDS011;1727;42.624;23.406;2022-09-25T05:08:09;9.50;;;8.60;;
3427;SDS011;1727;42.624;23.406;2022-09-25T05:10:36;9.80;;;7.73;;
3427;SDS011;1727;42.624;23.406;2022-09-25T05:13:05;9.77;;;7.50;;
3427;SDS011;1727;42.624;23.406;2022-09-25T05:15:33;7.77;;;6.87;;
3427;SDS011;1727;42.624;23.406;2022-09-25T05:18:02;19.10;;;11.87;;
3427;SDS011;1727;42.624;23.406;2022-09-25T05:20:30;23.13;;;9.53;;
3427;SDS011;1727;42.624;23.406;2022-09-25T05:22:57;13.23;;;9.47;;
3427;SDS011;1727;42.624;23.406;2022-09-25T05:25:25;10.53;;;8.57;;
3427;SDS011;1727;42.624;23.406;2022-09-25T05:27:53;13.90;;;11.03;;
3427;SDS011;1727;42.624;23.406;2022-09-25T05:30:22;17.27;;;12.53;;
3427;SDS011;1727;42.624;23.406;2022-09-25T05:32:49;19.60;;;13.30;;
3427;SDS011;1727;42.624;23.406;2022-09-25T05:35:19;13.47;;;10.67;;
3427;SDS011;1727;42.624;23.406;2022-09-25T05:37:47;14.93;;;10.60;;
3427;SDS011;1727;42.624;23.406;2022-09-25T05:40:14;17.80;;;11.07;;
3427;SDS011;1727;42.624;23.406;2022-09-25T05:42:42;20.10;;;12.10;;
3427;SDS011;1727;42.624;23.406;2022-09-25T05:45:09;12.53;;;10.23;;
3427;SDS011;1727;42.624;23.406;2022-09-25T05:47:37;14.83;;;9.40;;
3427;SDS011;1727;42.624;23.406;2022-09-25T05:50:04;10.50;;;9.40;;
3427;SDS011;1727;42.624;23.406;2022-09-25T05:52:33;13.23;;;9.77;;
3427;SDS011;1727;42.624;23.406;2022-09-25T05:55:00;12.33;;;9.23;;
3427;SDS011;1727;42.624;23.406;2022-09-25T05:57:29;11.77;;;9.07;;
3427;SDS011;1727;42.624;23.406;2022-09-25T05:59:56;9.90;;;8.80;;
3427;SDS011;1727;42.624;23.406;2022-09-25T06:02:23;13.83;;;9.90;;
3427;SDS011;1727;42.624;23.406;2022-09-25T06:04:50;12.10;;;9.53;;
3427;SDS011;1727;42.624;23.406;2022-09-25T06:07:16;16.77;;;8.80;;
3427;SDS011;1727;42.624;23.406;2022-09-25T06:09:45;8.87;;;8.00;;
3427;SDS011;1727;42.624;23.406;2022-09-25T06:12:11;11.43;;;8.60;;
3427;SDS011;1727;42.624;23.406;2022-09-25T06:14:38;10.57;;;9.47;;
3427;SDS011;1727;42.624;23.406;2022-09-25T06:17:05;11.63;;;8.30;;
3427;SDS011;1727;42.624;23.406;2022-09-25T06:19:32;13.73;;;9.23;;
3427;SDS011;1727;42.624;23.406;2022-09-25T06:21:59;10.00;;;8.97;;
3427;SDS011;1727;42.624;23.406;2022-09-25T06:24:26;11.80;;;9.10;;
3427;SDS011;1727;42.624;23.406;2022-09-25T06:26:54;10.70;;;9.23;;
3427;SDS011;1727;42.624;23.406;2022-09-25T06:29:21;19.93;;;10.80;;
3427;SDS011;1727;42.624;23.406;2022-09-25T06:31:48;8.50;;;7.70;;
3427;SDS011;1727;42.624;23.406;2022-09-25T06:34:15;8.67;;;7.87;;
3427;SDS011;1727;42.624;23.406;2022-09-25T06:36:41;9.27;;;8.30;;
3427;SDS011;1727;42.624;23.406;2022-09-25T06:39:08;11.63;;;8.93;;
3427;SDS011;1727;42.624;23.406;2022-09-25T06:41:35;8.30;;;7.57;;
3427;SDS011;1727;42.624;23.406;2022-09-25T06:44:03;9.60;;;7.77;;
3427;SDS011;1727;42.624;23.406;2022-09-25T06:46:31;9.57;;;7.43;;
3427;SDS011;1727;42.624;23.406;2022-09-25T06:48:57;11.43;;;7.97;;
3427;SDS011;1727;42.624;23.406;2022-09-25T06:51:27;8.80;;;7.90;;
3427;SDS011;1727;42.624;23.406;2022-09-25T06:53:55;7.33;;;6.20;;
3427;SDS011;1727;42.624;23.406;2022-09-25T06:56:22;13.73;;;8.33;;
3427;SDS011;1727;42.624;23.406;2022-09-25T06:58:49;7.40;;;6.60;;
3427;SDS011;1727;42.624;23.406;2022-09-25T07:01:17;9.20;;;7.00;;
3427;SDS011;1727;42.624;23.406;2022-09-25T07:03:44;9.80;;;6.50;;
3427;SDS011;1727;42.624;23.406;2022-09-25T07:06:12;8.27;;;7.50;;
3427;SDS011;1727;42.624;23.406;2022-09-25T07:08:39;9.50;;;6.80;;
3427;SDS011;1727;42.624;23.406;2022-09-25T07:11:09;8.23;;;6.60;;
3427;SDS011;1727;42.624;23.406;2022-09-25T07:13:38;9.27;;;6.20;;
3427;SDS011;1727;42.624;23.406;2022-09-25T07:16:06;7.20;;;6.47;;
3427;SDS011;1727;42.624;23.406;2022-09-25T07:18:38;6.70;;;6.10;;
3427;SDS011;1727;42.624;23.406;2022-09-25T07:21:05;6.33;;;5.83;;
3427;SDS011;1727;42.624;23.406;2022-09-25T07:23:34;6.00;;;5.50;;
3427;SDS011;1727;42.624;23.406;2022-09-25T07:26:05;7.27;;;6.27;;
3427;SDS011;1727;42.624;23.406;2022-09-25T07:28:33;7.17;;;6.47;;
3427;SDS011;1727;42.624;23.406;2022-09-25T07:31:08;9.77;;;7.07;;
3427;SDS011;1727;42.624;23.406;2022-09-25T07:33:38;16.17;;;7.20;;
3427;SDS011;1727;42.624;23.406;2022-09-25T07:36:05;8.10;;;7.20;;
3427;SDS011;1727;42.624;23.406;2022-09-25T07:38:32;18.80;;;9.63;;
3427;SDS011;1727;42.624;23.406;2022-09-25T07:41:01;19.93;;;10.27;;
3427;SDS011;1727;42.624;23.406;2022-09-25T07:43:29;24.77;;;13.73;;
3427;SDS011;1727;42.624;23.406;2022-09-25T07:45:57;18.20;;;13.00;;
3427;SDS011;1727;42.624;23.406;2022-09-25T07:48:23;16.23;;;13.30;;
3427;SDS011;1727;42.624;23.406;2022-09-25T07:50:52;20.83;;;13.93;;
3427;SDS011;1727;42.624;23.406;2022-09-25T07:53:19;17.97;;;13.73;;
3427;SDS011;1727;42.624;23.406;2022-09-25T07:55:46;18.63;;;12.63;;
3427;SDS011;1727;42.624;23.406;2022-09-25T07:58:13;18.73;;;11.30;;
3427;SDS011;1727;42.624;23.406;2022-09-25T08:00:40;11.97;;;9.20;;
3427;SDS011;1727;42.624;23.406;2022-09-25T08:03:13;14.07;;;9.50;;
3427;SDS011;1727;42.624;23.406;2022-09-25T08:05:40;10.60;;;9.50;;
3427;SDS011;1727;42.624;23.406;2022-09-25T08:08:08;12.70;;;8.27;;
3427;SDS011;1727;42.624;23.406;2022-09-25T08:10:35;20.30;;;8.70;;
3427;SDS011;1727;42.624;23.406;2022-09-25T08:13:02;11.13;;;8.10;;
3427;SDS011;1727;42.624;23.406;2022-09-25T08:15:29;11.77;;;8.83;;
3427;SDS011;1727;42.624;23.406;2022-09-25T08:17:55;9.00;;;8.20;;
3427;SDS011;1727;42.624;23.406;2022-09-25T08:20:23;14.00;;;8.70;;
3427;SDS011;1727;42.624;23.406;2022-09-25T08:22:51;9.50;;;7.83;;
3427;SDS011;1727;42.624;23.406;2022-09-25T08:25:20;11.50;;;9.40;;
3427;SDS011;1727;42.624;23.406;2022-09-25T08:27:47;13.50;;;10.27;;
3427;SDS011;1727;42.624;23.406;2022-09-25T08:30:14;13.13;;;8.50;;
3427;SDS011;1727;42.624;23.406;2022-09-25T08:32:42;9.90;;;8.77;;
3427;SDS011;1727;42.624;23.406;2022-09-25T08:35:08;9.80;;;8.23;;
3427;SDS011;1727;42.624;23.406;2022-09-25T08:37:38;12.57;;;9.03;;
3427;SDS011;1727;42.624;23.406;2022-09-25T08:40:07;8.73;;;7.20;;
3427;SDS011;1727;42.624;23.406;2022-09-25T08:42:44;8.70;;;7.80;;
3427;SDS011;1727;42.624;23.406;2022-09-25T08:45:18;32.53;;;9.70;;
3427;SDS011;1727;42.624;23.406;2022-09-25T08:48:08;10.00;;;8.73;;
3427;SDS011;1727;42.624;23.406;2022-09-25T08:51:00;7.10;;;6.40;;
3427;SDS011;1727;42.624;23.406;2022-09-25T08:53:29;9.70;;;7.57;;
3427;SDS011;1727;42.624;23.406;2022-09-25T08:55:57;9.20;;;8.07;;
3427;SDS011;1727;42.624;23.406;2022-09-25T08:58:43;11.57;;;8.90;;
3427;SDS011;1727;42.624;23.406;2022-09-25T09:01:16;7.67;;;6.87;;
3427;SDS011;1727;42.624;23.406;2022-09-25T09:03:47;8.37;;;7.40;;
3427;SDS011;1727;42.624;23.406;2022-09-25T09:06:19;18.80;;;9.90;;
3427;SDS011;1727;42.624;23.406;2022-09-25T09:08:50;9.80;;;7.40;;
3427;SDS011;1727;42.624;23.406;2022-09-25T09:11:21;8.57;;;6.50;;
3427;SDS011;1727;42.624;23.406;2022-09-25T09:13:53;6.47;;;5.83;;
3427;SDS011;1727;42.624;23.406;2022-09-25T09:16:27;6.73;;;6.13;;
3427;SDS011;1727;42.624;23.406;2022-09-25T09:19:18;6.10;;;5.50;;
3427;SDS011;1727;42.624;23.406;2022-09-25T09:21:47;6.87;;;5.97;;
3427;SDS011;1727;42.624;23.406;2022-09-25T09:24:22;6.47;;;5.90;;
3427;SDS011;1727;42.624;23.406;2022-09-25T09:27:03;8.43;;;5.60;;
3427;SDS011;1727;42.624;23.406;2022-09-25T09:29:48;6.53;;;5.93;;
3427;SDS011;1727;42.624;23.406;2022-09-25T09:32:36;10.40;;;6.80;;
3427;SDS011;1727;42.624;23.406;2022-09-25T09:35:23;9.70;;;6.23;;
3427;SDS011;1727;42.624;23.406;2022-09-25T09:37:57;6.93;;;6.33;;
3427;SDS011;1727;42.624;23.406;2022-09-25T09:46:34;10.70;;;5.50;;
3427;SDS011;1727;42.624;23.406;2022-09-25T09:49:11;6.20;;;5.60;;
3427;SDS011;1727;42.624;23.406;2022-09-25T09:51:44;6.10;;;5.53;;
3427;SDS011;1727;42.624;23.406;2022-09-25T09:54:18;10.10;;;5.17;;
3427;SDS011;1727;42.624;23.406;2022-09-25T09:56:49;7.60;;;5.70;;
3427;SDS011;1727;42.624;23.406;2022-09-25T09:59:18;11.95;;;6.90;;
3427;SDS011;1727;42.624;23.406;2022-09-25T10:01:51;5.70;;;4.70;;
3427;SDS011;1727;42.624;23.406;2022-09-25T10:04:27;6.27;;;5.17;;
3427;SDS011;1727;42.624;23.406;2022-09-25T10:06:58;5.57;;;5.07;;
3427;SDS011;1727;42.624;23.406;2022-09-25T10:09:28;5.87;;;4.80;;
3427;SDS011;1727;42.624;23.406;2022-09-25T10:11:58;6.53;;;5.90;;
3427;SDS011;1727;42.624;23.406;2022-09-25T10:14:31;6.53;;;5.50;;
3427;SDS011;1727;42.624;23.406;2022-09-25T10:17:01;7.73;;;5.90;;
3427;SDS011;1727;42.624;23.406;2022-09-25T10:19:32;6.60;;;5.03;;
3427;SDS011;1727;42.624;23.406;2022-09-25T10:22:12;8.33;;;5.30;;
3427;SDS011;1727;42.624;23.406;2022-09-25T10:24:45;5.97;;;5.40;;
3427;SDS011;1727;42.624;23.406;2022-09-25T10:27:20;10.60;;;5.87;;
3427;SDS011;1727;42.624;23.406;2022-09-25T10:30:01;7.07;;;5.03;;
3427;SDS011;1727;42.624;23.406;2022-09-25T10:32:32;5.53;;;5.07;;
3427;SDS011;1727;42.624;23.406;2022-09-25T10:35:11;9.43;;;5.80;;
3427;SDS011;1727;42.624;23.406;2022-09-25T10:37:40;6.70;;;5.40;;
3427;SDS011;1727;42.624;23.406;2022-09-25T10:40:20;8.83;;;5.77;;
3427;SDS011;1727;42.624;23.406;2022-09-25T10:42:56;5.53;;;5.03;;
3427;SDS011;1727;42.624;23.406;2022-09-25T10:45:29;5.90;;;5.30;;
3427;SDS011;1727;42.624;23.406;2022-09-25T10:47:58;6.80;;;5.53;;
3427;SDS011;1727;42.624;23.406;2022-09-25T10:50:43;9.88;;;4.70;;
3427;SDS011;1727;42.624;23.406;2022-09-25T10:53:23;5.70;;;4.83;;
3427;SDS011;1727;42.624;23.406;2022-09-25T10:55:56;5.90;;;5.30;;
3427;SDS011;1727;42.624;23.406;2022-09-25T10:58:30;8.03;;;5.67;;
3427;SDS011;1727;42.624;23.406;2022-09-25T11:01:01;5.40;;;5.00;;
3427;SDS011;1727;42.624;23.406;2022-09-25T11:03:32;5.17;;;4.67;;
3427;SDS011;1727;42.624;23.406;2022-09-25T11:06:01;5.10;;;4.67;;
3427;SDS011;1727;42.624;23.406;2022-09-25T11:08:31;7.70;;;4.60;;
3427;SDS011;1727;42.624;23.406;2022-09-25T11:11:02;7.17;;;4.67;;
3427;SDS011;1727;42.624;23.406;2022-09-25T11:13:30;5.80;;;5.07;;
3427;SDS011;1727;42.624;23.406;2022-09-25T11:16:03;8.93;;;5.60;;
3427;SDS011;1727;42.624;23.406;2022-09-25T11:18:39;9.63;;;4.80;;
3427;SDS011;1727;42.624;23.406;2022-09-25T11:21:19;8.60;;;5.70;;
3427;SDS011;1727;42.624;23.406;2022-09-25T11:24:03;6.97;;;6.37;;
3427;SDS011;1727;42.624;23.406;2022-09-25T11:26:40;9.20;;;5.40;;
3427;SDS011;1727;42.624;23.406;2022-09-25T11:29:12;7.67;;;6.43;;
3427;SDS011;1727;42.624;23.406;2022-09-25T11:31:47;6.70;;;5.63;;
3427;SDS011;1727;42.624;23.406;2022-09-25T11:34:21;7.37;;;5.40;;
3427;SDS011;1727;42.624;23.406;2022-09-25T11:36:59;7.33;;;5.43;;
3427;SDS011;1727;42.624;23.406;2022-09-25T11:39:32;9.60;;;4.70;;
3427;SDS011;1727;42.624;23.406;2022-09-25T11:42:37;6.33;;;5.73;;
3427;SDS011;1727;42.624;23.406;2022-09-25T11:45:12;5.87;;;5.30;;
3427;SDS011;1727;42.624;23.406;2022-09-25T11:47:45;10.73;;;5.07;;
3427;SDS011;1727;42.624;23.406;2022-09-25T11:50:20;5.40;;;4.90;;
3427;SDS011;1727;42.624;23.406;2022-09-25T11:52:56;5.60;;;4.70;;
3427;SDS011;1727;42.624;23.406;2022-09-25T11:55:43;5.60;;;5.20;;
3427;SDS011;1727;42.624;23.406;2022-09-25T12:01:17;4.93;;;4.53;;
3427;SDS011;1727;42.624;23.406;2022-09-25T12:04:11;4.93;;;4.50;;
3427;SDS011;1727;42.624;23.406;2022-09-25T12:09:53;5.13;;;4.63;;
3427;SDS011;1727;42.624;23.406;2022-09-25T12:12:41;4.93;;;4.43;;
3427;SDS011;1727;42.624;23.406;2022-09-25T12:15:25;7.20;;;5.30;;
3427;SDS011;1727;42.624;23.406;2022-09-25T12:18:04;6.30;;;4.30;;
3427;SDS011;1727;42.624;23.406;2022-09-25T12:20:39;4.60;;;4.20;;
3427;SDS011;1727;42.624;23.406;2022-09-25T12:23:16;4.57;;;4.17;;
3427;SDS011;1727;42.624;23.406;2022-09-25T12:25:54;4.83;;;4.43;;
3427;SDS011;1727;42.624;23.406;2022-09-25T12:28:32;4.47;;;4.07;;
3427;SDS011;1727;42.624;23.406;2022-09-25T12:31:12;5.60;;;4.37;;
3427;SDS011;1727;42.624;23.406;2022-09-25T12:33:47;6.47;;;4.10;;
3427;SDS011;1727;42.624;23.406;2022-09-25T12:36:21;8.30;;;4.80;;
3427;SDS011;1727;42.624;23.406;2022-09-25T12:39:02;5.20;;;4.17;;
3427;SDS011;1727;42.624;23.406;2022-09-25T12:41:38;5.53;;;4.77;;
3427;SDS011;1727;42.624;23.406;2022-09-25T12:44:11;7.80;;;4.90;;
3427;SDS011;1727;42.624;23.406;2022-09-25T12:46:46;5.03;;;4.10;;
3427;SDS011;1727;42.624;23.406;2022-09-25T12:49:20;3.87;;;3.57;;
3427;SDS011;1727;42.624;23.406;2022-09-25T12:51:53;4.10;;;3.67;;
3427;SDS011;1727;42.624;23.406;2022-09-25T12:54:28;6.40;;;4.43;;
3427;SDS011;1727;42.624;23.406;2022-09-25T12:56:59;5.00;;;4.50;;
3427;SDS011;1727;42.624;23.406;2022-09-25T12:59:30;4.40;;;3.73;;
3427;SDS011;1727;42.624;23.406;2022-09-25T13:02:05;6.90;;;3.77;;
3427;SDS011;1727;42.624;23.406;2022-09-25T13:04:48;4.57;;;4.17;;
3427;SDS011;1727;42.624;23.406;2022-09-25T13:07:26;4.27;;;3.87;;
3427;SDS011;1727;42.624;23.406;2022-09-25T13:09:58;5.80;;;5.00;;
3427;SDS011;1727;42.624;23.406;2022-09-25T13:12:29;4.30;;;3.90;;
3427;SDS011;1727;42.624;23.406;2022-09-25T13:14:59;3.57;;;3.27;;
3427;SDS011;1727;42.624;23.406;2022-09-25T13:17:30;4.63;;;4.17;;
3427;SDS011;1727;42.624;23.406;2022-09-25T13:23:08;3.80;;;3.50;;
3427;SDS011;1727;42.624;23.406;2022-09-25T13:25:41;8.07;;;4.73;;
3427;SDS011;1727;42.624;23.406;2022-09-25T13:28:15;3.73;;;3.40;;
3427;SDS011;1727;42.624;23.406;2022-09-25T13:30:58;4.37;;;3.97;;
3427;SDS011;1727;42.624;23.406;2022-09-25T13:33:32;15.20;;;4.00;;
3427;SDS011;1727;42.624;23.406;2022-09-25T13:36:07;14.97;;;4.37;;
3427;SDS011;1727;42.624;23.406;2022-09-25T13:38:39;7.00;;;4.00;;
3427;SDS011;1727;42.624;23.406;2022-09-25T13:41:28;6.53;;;3.53;;
3427;SDS011;1727;42.624;23.406;2022-09-25T13:50:27;4.23;;;3.33;;
3427;SDS011;1727;42.624;23.406;2022-09-25T13:58:59;4.17;;;3.87;;
3427;SDS011;1727;42.624;23.406;2022-09-25T14:01:32;4.10;;;3.70;;
3427;SDS011;1727;42.624;23.406;2022-09-25T14:04:07;6.07;;;3.57;;
3427;SDS011;1727;42.624;23.406;2022-09-25T14:06:36;7.17;;;3.90;;
3427;SDS011;1727;42.624;23.406;2022-09-25T14:09:06;4.60;;;3.57;;
3427;SDS011;1727;42.624;23.406;2022-09-25T14:11:35;4.07;;;3.77;;
3427;SDS011;1727;42.624;23.406;2022-09-25T14:14:07;6.73;;;4.00;;
3427;SDS011;1727;42.624;23.406;2022-09-25T14:16:40;4.77;;;3.90;;
3427;SDS011;1727;42.624;23.406;2022-09-25T14:19:15;4.17;;;3.77;;
3427;SDS011;1727;42.624;23.406;2022-09-25T14:21:43;3.73;;;3.43;;
3427;SDS011;1727;42.624;23.406;2022-09-25T14:24:16;5.77;;;3.80;;
3427;SDS011;1727;42.624;23.406;2022-09-25T14:26:45;4.90;;;3.87;;
3427;SDS011;1727;42.624;23.406;2022-09-25T14:29:15;3.70;;;3.40;;
3427;SDS011;1727;42.624;23.406;2022-09-25T14:31:46;3.70;;;3.40;;
3427;SDS011;1727;42.624;23.406;2022-09-25T14:34:28;4.00;;;3.50;;
3427;SDS011;1727;42.624;23.406;2022-09-25T14:37:18;5.90;;;3.53;;
3427;SDS011;1727;42.624;23.406;2022-09-25T14:39:57;3.87;;;3.50;;
3427;SDS011;1727;42.624;23.406;2022-09-25T14:42:33;4.33;;;3.93;;
3427;SDS011;1727;42.624;23.406;2022-09-25T14:48:10;4.60;;;3.50;;
3427;SDS011;1727;42.624;23.406;2022-09-25T14:50:42;3.93;;;3.50;;
3427;SDS011;1727;42.624;23.406;2022-09-25T14:53:16;10.20;;;3.53;;
3427;SDS011;1727;42.624;23.406;2022-09-25T14:55:54;4.70;;;2.93;;
3427;SDS011;1727;42.624;23.406;2022-09-25T15:01:46;4.27;;;3.97;;
3427;SDS011;1727;42.624;23.406;2022-09-25T15:04:23;3.50;;;3.20;;
3427;SDS011;1727;42.624;23.406;2022-09-25T15:06:57;3.40;;;3.20;;
3427;SDS011;1727;42.624;23.406;2022-09-25T15:09:34;6.97;;;3.30;;
3427;SDS011;1727;42.624;23.406;2022-09-25T15:12:14;4.23;;;3.80;;
3427;SDS011;1727;42.624;23.406;2022-09-25T15:41:18;4.93;;;3.83;;
3427;SDS011;1727;42.624;23.406;2022-09-25T15:43:47;5.10;;;4.30;;
3427;SDS011;1727;42.624;23.406;2022-09-25T15:46:28;12.13;;;4.13;;
3427;SDS011;1727;42.624;23.406;2022-09-25T15:49:02;3.40;;;3.10;;
3427;SDS011;1727;42.624;23.406;2022-09-25T15:51:31;5.23;;;3.50;;
3427;SDS011;1727;42.624;23.406;2022-09-25T15:54:00;4.87;;;3.33;;
3427;SDS011;1727;42.624;23.406;2022-09-25T15:56:37;3.73;;;3.30;;
3427;SDS011;1727;42.624;23.406;2022-09-25T15:59:14;5.77;;;3.50;;
3427;SDS011;1727;42.624;23.406;2022-09-25T16:01:43;13.70;;;4.30;;
3427;SDS011;1727;42.624;23.406;2022-09-25T16:04:27;4.80;;;3.87;;
3427;SDS011;1727;42.624;23.406;2022-09-25T16:07:23;5.53;;;5.00;;
3427;SDS011;1727;42.624;23.406;2022-09-25T16:09:53;5.50;;;4.73;;
3427;SDS011;1727;42.624;23.406;2022-09-25T16:12:28;6.90;;;5.33;;
3427;SDS011;1727;42.624;23.406;2022-09-25T16:14:59;6.57;;;4.80;;
3427;SDS011;1727;42.624;23.406;2022-09-25T16:17:56;14.37;;;5.17;;
3427;SDS011;1727;42.624;23.406;2022-09-25T16:20:27;9.97;;;5.13;;
3427;SDS011;1727;42.624;23.406;2022-09-25T16:23:00;17.13;;;6.63;;
3427;SDS011;1727;42.624;23.406;2022-09-25T16:25:29;7.43;;;5.20;;
3427;SDS011;1727;42.624;23.406;2022-09-25T16:28:02;22.47;;;6.47;;